Berlin — 9HA2295 — position and weather

sailwx.info

Track history (hours):
 
Tides and Currents Weather Stations Pressure Air Temp Water Temp Dewpoint Dewpoint Depression Visibility Wind Speed Wind Dir Waves Ship Positions

Berlin

Last reported at 2015-Sep-02 03:34 UTC. Time now 2015-Sep-02 04:23 UTC.
Position N 52°26' E 004°21'.

Length 140 m; draft 5 m.

Type: Ship. MMSI: 248277000.

Date/timePositionNaut miles runAvg speedWind from/ knotsBaromVisibWave heightAir tempDewpointWater temp
2015-Sep-02 03:34N 52°26' E 004°21'4 4.2
2015-Sep-02 02:33N 52°29' E 004°16'6 6.4
2015-Sep-02 01:33N 52°28' E 004°05'6 5.8
2015-Sep-02 00:34N 52°27' E 003°56'7 6.5
2015-Sep-01 23:33N 52°25' E 003°46'68 8.1
2015-Sep-01 15:06N 51°37' E 002°27'610.1
2015-Sep-01 14:34N 51°33' E 002°21'10 9.7
2015-Sep-01 13:34N 51°25' E 002°13'9 9.1
2015-Sep-01 12:34N 51°17' E 002°06'8 7.8
2015-Sep-01 11:33N 51°11' E 001°58'6 6.1
2015-Sep-01 10:34N 51°08' E 001°50'5 4.7
2015-Sep-01 09:34N 51°05' E 001°44'9 9.2
2015-Sep-01 08:33N 50°59' E 001°33'10 9.4
2015-Sep-01 07:31N 50°50' E 001°25'54 1.7
2015-Aug-31 00:23N 50°30' E 000°06'1113.4
2015-Aug-30 23:33N 50°33' E 000°23'1212.3
2015-Aug-30 22:33N 50°39' E 000°40'1212.0
2015-Aug-30 21:33N 50°47' E 000°55'1313.4
2015-Aug-30 20:34N 50°55' E 001°11'1616.2
2015-Aug-30 19:34N 51°06' E 001°30'1514.8
2015-Aug-30 18:34N 51°20' E 001°36'1413.7
2015-Aug-30 17:33N 51°29' E 001°19'1313.5
2015-Aug-30 16:33N 51°29' E 000°57'1716.6
2015-Aug-30 15:33N 51°30' E 000°31'1010.4
2015-Aug-30 14:34N 51°28' E 000°14'9 9.0
2015-Aug-30 13:34N 51°30' W 000°00'1 0.0
2015-Aug-29 01:09N 51°30' W 000°02'3 5.5
2015-Aug-29 00:32N 51°30' E 000°04'7 7.6
2015-Aug-28 23:34N 51°28' E 000°15'8 7.6
2015-Aug-28 22:34N 51°29' E 000°27'1313.3
2015-Aug-28 21:34N 51°30' E 000°49'1313.3
2015-Aug-28 20:33N 51°29' E 001°10'1212.5
2015-Aug-28 19:33N 51°26' E 001°29'6 6.2
2015-Aug-28 18:33N 51°23' E 001°38'9 9.1
2015-Aug-28 17:33N 51°26' E 001°52'1313.0
2015-Aug-28 16:33N 51°36' E 002°06'7011.6
2015-Aug-28 10:33N 52°29' E 003°19'1313.2
2015-Aug-28 09:32N 52°40' E 003°32'1313.5
2015-Aug-28 08:33N 52°50' E 003°46'1313.5
2015-Aug-28 07:33N 52°59' E 004°02'1313.2
2015-Aug-28 06:32N 53°08' E 004°19'1312.9
2015-Aug-28 05:33N 53°19' E 004°31'1212.1
2015-Aug-28 04:33N 53°29' E 004°42'1212.3
2015-Aug-28 03:33N 53°34' E 005°00'1212.0
2015-Aug-28 02:33N 53°39' E 005°19'1312.7
2015-Aug-28 01:33N 53°43' E 005°40'1313.5
2015-Aug-28 00:33N 53°47' E 006°01'1413.6
2015-Aug-27 23:32N 53°51' E 006°24'1312.5
2015-Aug-27 22:31N 53°53' E 006°45'1010.6
2015-Aug-27 21:32N 53°55' E 007°02'1312.8
2015-Aug-27 20:33N 53°58' E 007°23'1211.6
2015-Aug-27 19:33N 53°57' E 007°43'10 9.8
2015-Aug-27 18:33N 53°52' E 007°57'1111.4
2015-Aug-27 17:33N 53°45' E 008°13'1312.7
2015-Aug-27 16:33N 53°37' E 008°29'4 3.9
2015-Aug-27 15:31N 53°34' E 008°33'0 0.0
2015-Aug-27 14:31N 53°34' E 008°33'0 0.0
2015-Aug-27 13:31N 53°34' E 008°33'0 0.0
2015-Aug-27 12:31N 53°34' E 008°33'0 0.0
2015-Aug-27 11:31N 53°34' E 008°33'0 0.0
2015-Aug-27 10:31N 53°34' E 008°33'0 0.0
2015-Aug-27 09:31N 53°34' E 008°33'0 0.0
2015-Aug-27 08:31N 53°34' E 008°33'0 0.0
2015-Aug-27 07:31N 53°34' E 008°33'0 0.0
2015-Aug-27 06:31N 53°34' E 008°33'0 0.1
2015-Aug-27 05:33N 53°34' E 008°33'8 8.2
2015-Aug-27 04:33N 53°39' E 008°23'1212.4
2015-Aug-27 03:33N 53°48' E 008°08'1211.5
2015-Aug-27 02:33N 53°52' E 007°50'8 7.7
2015-Aug-27 01:30N 53°57' E 007°38'8 8.3
2015-Aug-27 00:33N 54°04' E 007°32'8 8.4
2015-Aug-26 23:33N 54°11' E 007°26'9 8.8
2015-Aug-26 22:33N 54°20' E 007°20'9 9.0
2015-Aug-26 21:33N 54°28' E 007°15'9 9.3
2015-Aug-26 20:33N 54°36' E 007°08'9 9.4
2015-Aug-26 19:33N 54°45' E 007°01'10 9.5
2015-Aug-26 18:33N 54°54' E 006°55'10 9.8
2015-Aug-26 17:33N 55°03' E 006°48'10 9.9
2015-Aug-26 16:33N 55°12' E 006°43'10 9.6
2015-Aug-26 15:33N 55°21' E 006°40'1010.0
2015-Aug-26 14:33N 55°31' E 006°40'19910.0
2015-Aug-25 18:33N 58°46' E 005°16'1111.4
2015-Aug-25 17:33N 58°54' E 005°31'8 8.1
2015-Aug-25 16:33N 59°01' E 005°39'3 3.4
2015-Aug-25 15:33N 58°58' E 005°44'0 0.0
2015-Aug-25 14:33N 58°58' E 005°44'0 0.0
2015-Aug-25 13:33N 58°58' E 005°44'0 0.0
2015-Aug-25 12:33N 58°58' E 005°44'0 0.0
2015-Aug-25 11:33N 58°58' E 005°44'0 0.0
2015-Aug-25 10:30N 58°58' E 005°44'0 0.0
2015-Aug-25 09:33N 58°58' E 005°44'0 0.0
2015-Aug-25 08:33N 58°58' E 005°44'0 0.0
2015-Aug-25 07:33N 58°58' E 005°44'0 0.0
2015-Aug-25 06:33N 58°58' E 005°44'1 0.8
2015-Aug-25 05:33N 58°59' E 005°43'1111.0
2015-Aug-25 04:33N 59°06' E 005°27'1110.8
2015-Aug-25 03:34N 59°02' E 005°08'1212.2
2015-Aug-25 02:33N 59°10' E 004°50'1211.8
2015-Aug-25 01:33N 59°21' E 004°41'1313.3
2015-Aug-25 00:32N 59°34' E 004°44'  
Track history (hours):
 
Tides and Currents Weather Stations Pressure Air Temp Water Temp Dewpoint Dewpoint Depression Visibility Wind Speed Wind Dir Waves Ship Positions

Berlin

Last reported at 2015-Sep-02 03:34 UTC. Time now 2015-Sep-02 04:23 UTC.
Position N 52°26' E 004°21'.

Length 140 m; draft 5 m.

Type: Ship. MMSI: 248277000.

Date/timePositionNaut miles runAvg speedWind from/ knotsBaromVisibWave heightAir tempDewpointWater temp
2015-Sep-02 03:34N 52°26' E 004°21'4 4.2
2015-Sep-02 02:33N 52°29' E 004°16'6 6.4
2015-Sep-02 01:33N 52°28' E 004°05'6 5.8
2015-Sep-02 00:34N 52°27' E 003°56'7 6.5
2015-Sep-01 23:33N 52°25' E 003°46'68 8.1
2015-Sep-01 15:06N 51°37' E 002°27'610.1
2015-Sep-01 14:34N 51°33' E 002°21'10 9.7
2015-Sep-01 13:34N 51°25' E 002°13'9 9.1
2015-Sep-01 12:34N 51°17' E 002°06'8 7.8
2015-Sep-01 11:33N 51°11' E 001°58'6 6.1
2015-Sep-01 10:34N 51°08' E 001°50'5 4.7
2015-Sep-01 09:34N 51°05' E 001°44'9 9.2
2015-Sep-01 08:33N 50°59' E 001°33'10 9.4
2015-Sep-01 07:31N 50°50' E 001°25'54 1.7
2015-Aug-31 00:23N 50°30' E 000°06'1113.4
2015-Aug-30 23:33N 50°33' E 000°23'1212.3
2015-Aug-30 22:33N 50°39' E 000°40'1212.0
2015-Aug-30 21:33N 50°47' E 000°55'1313.4
2015-Aug-30 20:34N 50°55' E 001°11'1616.2
2015-Aug-30 19:34N 51°06' E 001°30'1514.8
2015-Aug-30 18:34N 51°20' E 001°36'1413.7
2015-Aug-30 17:33N 51°29' E 001°19'1313.5
2015-Aug-30 16:33N 51°29' E 000°57'1716.6
2015-Aug-30 15:33N 51°30' E 000°31'1010.4
2015-Aug-30 14:34N 51°28' E 000°14'9 9.0
2015-Aug-30 13:34N 51°30' W 000°00'1 0.0
2015-Aug-29 01:09N 51°30' W 000°02'3 5.5
2015-Aug-29 00:32N 51°30' E 000°04'7 7.6
2015-Aug-28 23:34N 51°28' E 000°15'8 7.6
2015-Aug-28 22:34N 51°29' E 000°27'1313.3
2015-Aug-28 21:34N 51°30' E 000°49'1313.3
2015-Aug-28 20:33N 51°29' E 001°10'1212.5
2015-Aug-28 19:33N 51°26' E 001°29'6 6.2
2015-Aug-28 18:33N 51°23' E 001°38'9 9.1
2015-Aug-28 17:33N 51°26' E 001°52'1313.0
2015-Aug-28 16:33N 51°36' E 002°06'7011.6
2015-Aug-28 10:33N 52°29' E 003°19'1313.2
2015-Aug-28 09:32N 52°40' E 003°32'1313.5
2015-Aug-28 08:33N 52°50' E 003°46'1313.5
2015-Aug-28 07:33N 52°59' E 004°02'1313.2
2015-Aug-28 06:32N 53°08' E 004°19'1312.9
2015-Aug-28 05:33N 53°19' E 004°31'1212.1
2015-Aug-28 04:33N 53°29' E 004°42'1212.3
2015-Aug-28 03:33N 53°34' E 005°00'1212.0
2015-Aug-28 02:33N 53°39' E 005°19'1312.7
2015-Aug-28 01:33N 53°43' E 005°40'1313.5
2015-Aug-28 00:33N 53°47' E 006°01'1413.6
2015-Aug-27 23:32N 53°51' E 006°24'1312.5
2015-Aug-27 22:31N 53°53' E 006°45'1010.6
2015-Aug-27 21:32N 53°55' E 007°02'1312.8
2015-Aug-27 20:33N 53°58' E 007°23'1211.6
2015-Aug-27 19:33N 53°57' E 007°43'10 9.8
2015-Aug-27 18:33N 53°52' E 007°57'1111.4
2015-Aug-27 17:33N 53°45' E 008°13'1312.7
2015-Aug-27 16:33N 53°37' E 008°29'4 3.9
2015-Aug-27 15:31N 53°34' E 008°33'0 0.0
2015-Aug-27 14:31N 53°34' E 008°33'0 0.0
2015-Aug-27 13:31N 53°34' E 008°33'0 0.0
2015-Aug-27 12:31N 53°34' E 008°33'0 0.0
2015-Aug-27 11:31N 53°34' E 008°33'0 0.0
2015-Aug-27 10:31N 53°34' E 008°33'0 0.0
2015-Aug-27 09:31N 53°34' E 008°33'0 0.0
2015-Aug-27 08:31N 53°34' E 008°33'0 0.0
2015-Aug-27 07:31N 53°34' E 008°33'0 0.0
2015-Aug-27 06:31N 53°34' E 008°33'0 0.1
2015-Aug-27 05:33N 53°34' E 008°33'8 8.2
2015-Aug-27 04:33N 53°39' E 008°23'1212.4
2015-Aug-27 03:33N 53°48' E 008°08'1211.5
2015-Aug-27 02:33N 53°52' E 007°50'8 7.7
2015-Aug-27 01:30N 53°57' E 007°38'8 8.3
2015-Aug-27 00:33N 54°04' E 007°32'8 8.4
2015-Aug-26 23:33N 54°11' E 007°26'9 8.8
2015-Aug-26 22:33N 54°20' E 007°20'9 9.0
2015-Aug-26 21:33N 54°28' E 007°15'9 9.3
2015-Aug-26 20:33N 54°36' E 007°08'9 9.4
2015-Aug-26 19:33N 54°45' E 007°01'10 9.5
2015-Aug-26 18:33N 54°54' E 006°55'10 9.8
2015-Aug-26 17:33N 55°03' E 006°48'10 9.9
2015-Aug-26 16:33N 55°12' E 006°43'10 9.6
2015-Aug-26 15:33N 55°21' E 006°40'1010.0
2015-Aug-26 14:33N 55°31' E 006°40'19910.0
2015-Aug-25 18:33N 58°46' E 005°16'1111.4
2015-Aug-25 17:33N 58°54' E 005°31'8 8.1
2015-Aug-25 16:33N 59°01' E 005°39'3 3.4
2015-Aug-25 15:33N 58°58' E 005°44'0 0.0
2015-Aug-25 14:33N 58°58' E 005°44'0 0.0
2015-Aug-25 13:33N 58°58' E 005°44'0 0.0
2015-Aug-25 12:33N 58°58' E 005°44'0 0.0
2015-Aug-25 11:33N 58°58' E 005°44'0 0.0
2015-Aug-25 10:30N 58°58' E 005°44'0 0.0
2015-Aug-25 09:33N 58°58' E 005°44'0 0.0
2015-Aug-25 08:33N 58°58' E 005°44'0 0.0
2015-Aug-25 07:33N 58°58' E 005°44'0 0.0
2015-Aug-25 06:33N 58°58' E 005°44'1 0.8
2015-Aug-25 05:33N 58°59' E 005°43'1111.0
2015-Aug-25 04:33N 59°06' E 005°27'1110.8
2015-Aug-25 03:34N 59°02' E 005°08'1212.2
2015-Aug-25 02:33N 59°10' E 004°50'1211.8
2015-Aug-25 01:33N 59°21' E 004°41'1313.3
2015-Aug-25 00:32N 59°34' E 004°44'  

Dump ship's entire track history